Magnus Heinason — OW2252 — position and weather

sailwx.info

Track history (hours):
 
Tides and Currents Weather Stations Pressure Air Temp Water Temp Dewpoint Dewpoint Depression Visibility Wind Speed Wind Dir Waves Ship Positions

Oceanographic research ship Magnus Heinason (Faroe Islands)

Detailed information on ship capabilities available from ARCUS's ALIAS (Arctic Logistics Information and Support) project.

Last reported at 2014-Sep-30 11:33 UTC. Time now 2014-Sep-30 12:01 UTC.
Position N 62°00' W 006°46'.

Length 44 m; draft 4 m.

Type: . MMSI: 231041000.

Date/timePositionNaut miles runAvg speedWind from/ knotsBaromVisibWave heightAir tempDewpointWater temp
2014-Sep-30 11:33N 62°00' W 006°46'0 0.0
2014-Sep-30 10:33N 62°00' W 006°46'0 0.1
2014-Sep-30 09:33N 62°00' W 006°46'0 0.1
2014-Sep-30 08:33N 62°00' W 006°46'0 0.0
2014-Sep-30 07:22N 62°00' W 006°46'0 0.0
2014-Sep-30 06:33N 62°00' W 006°46'0 0.0
2014-Sep-30 05:33N 62°00' W 006°46'0 0.0
2014-Sep-30 04:33N 62°00' W 006°46'4 4.0
2014-Sep-30 03:33N 61°58' W 006°40'9 8.5
2014-Sep-30 02:33N 61°50' W 006°31'9 9.3
2014-Sep-30 01:33N 61°43' W 006°20'51 3.8
2014-Sep-29 12:11N 61°28' W 004°38'2 3.0
2014-Sep-29 11:29N 61°30' W 004°36'  
2014-Sep-25 16:22N 62°23' W 006°44'4 4.8
2014-Sep-25 15:33N 62°24' W 006°52'8 7.4
2014-Sep-25 14:28N 62°26' W 007°08'31 0.7
2014-Sep-23 15:19N 62°08' W 008°01'1810.4
2014-Sep-23 13:33N 62°00' W 007°26'1010.2
2014-Sep-23 12:33N 61°57' W 007°05'1010.1
2014-Sep-23 11:33N 61°57' W 006°43'4 3.8
2014-Sep-23 10:33N 62°00' W 006°46'0 0.0
2014-Sep-23 09:33N 62°00' W 006°46'0 0.0
2014-Sep-23 08:33N 62°00' W 006°46'0 0.0
2014-Sep-23 07:33N 62°00' W 006°46'0 0.0
2014-Sep-23 06:33N 62°00' W 006°46'0 0.0
2014-Sep-23 05:33N 62°00' W 006°46'0 0.0
2014-Sep-23 04:33N 62°00' W 006°46'0 0.0
2014-Sep-23 03:33N 62°00' W 006°46'0 0.0
2014-Sep-23 02:33N 62°00' W 006°46'0 0.0
2014-Sep-23 01:33N 62°00' W 006°46'0 0.0
2014-Sep-23 00:33N 62°00' W 006°46'0 0.0
2014-Sep-22 23:33N 62°00' W 006°46'0 0.0
2014-Sep-22 22:33N 62°00' W 006°46'0 0.0
2014-Sep-22 21:33N 62°00' W 006°46'0 0.0
2014-Sep-22 20:33N 62°00' W 006°46'0 0.0
2014-Sep-22 19:33N 62°00' W 006°46'0 0.0
2014-Sep-22 18:33N 62°00' W 006°46'0 0.0
2014-Sep-22 17:33N 62°00' W 006°46'0 0.0
2014-Sep-22 16:33N 62°00' W 006°46'0 0.0
2014-Sep-22 15:33N 62°00' W 006°46'0 0.0
2014-Sep-22 14:33N 62°00' W 006°46'0 0.0
2014-Sep-22 13:33N 62°00' W 006°46'0 0.0
2014-Sep-22 12:33N 62°00' W 006°46'0 0.0
2014-Sep-22 11:33N 62°00' W 006°46'0 0.0
2014-Sep-22 10:33N 62°00' W 006°46'0 0.0
2014-Sep-22 09:33N 62°00' W 006°46'0 0.0
2014-Sep-22 08:33N 62°00' W 006°46'0 0.0
2014-Sep-22 07:33N 62°00' W 006°46'0 0.1
2014-Sep-22 06:33N 62°00' W 006°46'0 0.0
2014-Sep-22 05:33N 62°00' W 006°46'0 0.0
2014-Sep-22 04:33N 62°00' W 006°46'0 0.0
2014-Sep-22 03:33N 62°00' W 006°46'4 3.9
2014-Sep-22 02:33N 62°03' W 006°40'1010.2
2014-Sep-22 01:33N 62°10' W 006°25'43 3.0
2014-Sep-21 11:13N 62°51' W 007°01'5 7.9
2014-Sep-21 10:31N 62°48' W 007°11'33 4.6
2014-Sep-21 03:21N 62°31' W 008°13'2 2.5
2014-Sep-21 02:33N 62°30' W 008°17'  
Track history (hours):
 
Tides and Currents Weather Stations Pressure Air Temp Water Temp Dewpoint Dewpoint Depression Visibility Wind Speed Wind Dir Waves Ship Positions

Oceanographic research ship Magnus Heinason (Faroe Islands)

Detailed information on ship capabilities available from ARCUS's ALIAS (Arctic Logistics Information and Support) project.

Last reported at 2014-Sep-30 11:33 UTC. Time now 2014-Sep-30 12:01 UTC.
Position N 62°00' W 006°46'.

Length 44 m; draft 4 m.

Type: . MMSI: 231041000.

Date/timePositionNaut miles runAvg speedWind from/ knotsBaromVisibWave heightAir tempDewpointWater temp
2014-Sep-30 11:33N 62°00' W 006°46'0 0.0
2014-Sep-30 10:33N 62°00' W 006°46'0 0.1
2014-Sep-30 09:33N 62°00' W 006°46'0 0.1
2014-Sep-30 08:33N 62°00' W 006°46'0 0.0
2014-Sep-30 07:22N 62°00' W 006°46'0 0.0
2014-Sep-30 06:33N 62°00' W 006°46'0 0.0
2014-Sep-30 05:33N 62°00' W 006°46'0 0.0
2014-Sep-30 04:33N 62°00' W 006°46'4 4.0
2014-Sep-30 03:33N 61°58' W 006°40'9 8.5
2014-Sep-30 02:33N 61°50' W 006°31'9 9.3
2014-Sep-30 01:33N 61°43' W 006°20'51 3.8
2014-Sep-29 12:11N 61°28' W 004°38'2 3.0
2014-Sep-29 11:29N 61°30' W 004°36'  
2014-Sep-25 16:22N 62°23' W 006°44'4 4.8
2014-Sep-25 15:33N 62°24' W 006°52'8 7.4
2014-Sep-25 14:28N 62°26' W 007°08'31 0.7
2014-Sep-23 15:19N 62°08' W 008°01'1810.4
2014-Sep-23 13:33N 62°00' W 007°26'1010.2
2014-Sep-23 12:33N 61°57' W 007°05'1010.1
2014-Sep-23 11:33N 61°57' W 006°43'4 3.8
2014-Sep-23 10:33N 62°00' W 006°46'0 0.0
2014-Sep-23 09:33N 62°00' W 006°46'0 0.0
2014-Sep-23 08:33N 62°00' W 006°46'0 0.0
2014-Sep-23 07:33N 62°00' W 006°46'0 0.0
2014-Sep-23 06:33N 62°00' W 006°46'0 0.0
2014-Sep-23 05:33N 62°00' W 006°46'0 0.0
2014-Sep-23 04:33N 62°00' W 006°46'0 0.0
2014-Sep-23 03:33N 62°00' W 006°46'0 0.0
2014-Sep-23 02:33N 62°00' W 006°46'0 0.0
2014-Sep-23 01:33N 62°00' W 006°46'0 0.0
2014-Sep-23 00:33N 62°00' W 006°46'0 0.0
2014-Sep-22 23:33N 62°00' W 006°46'0 0.0
2014-Sep-22 22:33N 62°00' W 006°46'0 0.0
2014-Sep-22 21:33N 62°00' W 006°46'0 0.0
2014-Sep-22 20:33N 62°00' W 006°46'0 0.0
2014-Sep-22 19:33N 62°00' W 006°46'0 0.0
2014-Sep-22 18:33N 62°00' W 006°46'0 0.0
2014-Sep-22 17:33N 62°00' W 006°46'0 0.0
2014-Sep-22 16:33N 62°00' W 006°46'0 0.0
2014-Sep-22 15:33N 62°00' W 006°46'0 0.0
2014-Sep-22 14:33N 62°00' W 006°46'0 0.0
2014-Sep-22 13:33N 62°00' W 006°46'0 0.0
2014-Sep-22 12:33N 62°00' W 006°46'0 0.0
2014-Sep-22 11:33N 62°00' W 006°46'0 0.0
2014-Sep-22 10:33N 62°00' W 006°46'0 0.0
2014-Sep-22 09:33N 62°00' W 006°46'0 0.0
2014-Sep-22 08:33N 62°00' W 006°46'0 0.0
2014-Sep-22 07:33N 62°00' W 006°46'0 0.1
2014-Sep-22 06:33N 62°00' W 006°46'0 0.0
2014-Sep-22 05:33N 62°00' W 006°46'0 0.0
2014-Sep-22 04:33N 62°00' W 006°46'0 0.0
2014-Sep-22 03:33N 62°00' W 006°46'4 3.9
2014-Sep-22 02:33N 62°03' W 006°40'1010.2
2014-Sep-22 01:33N 62°10' W 006°25'43 3.0
2014-Sep-21 11:13N 62°51' W 007°01'5 7.9
2014-Sep-21 10:31N 62°48' W 007°11'33 4.6
2014-Sep-21 03:21N 62°31' W 008°13'2 2.5
2014-Sep-21 02:33N 62°30' W 008°17'  

Dump ship's entire track history